Time;durP1;ratioP1;P1;durP2;ratioP2;P2;SDS_P1;SDS_P2;PMS_P1;PMS_P2;Temp;Humidity;BMP_temperature;BMP_pressure;BME280_temperature;BME280_humidity;BME280_pressure;Samples;Min_cycle;Max_cycle;Signal;HPM_P1;HPM_P2
2022/12/16 00:00:00;;;;;;;;;47.75;34.00;;;;;2.35;59.19;100617.38;5059234;28;45389;-53
2022/12/16 00:02:25;;;;;;;;;43.00;33.25;;;;;2.35;59.30;100611.28;5059181;28;45427;-50
2022/12/16 00:04:50;;;;;;;;;44.75;32.00;;;;;2.32;59.70;100612.34;5059212;28;46028;-54
2022/12/16 00:07:16;;;;;;;;;45.00;32.50;;;;;2.31;59.44;100612.41;5059004;28;45337;-47
2022/12/16 00:09:41;;;;;;;;;47.75;41.50;;;;;2.31;59.22;100622.91;5059304;28;45361;-53
2022/12/16 00:12:06;;;;;;;;;49.75;43.25;;;;;2.30;59.54;100629.09;5059243;28;45304;-49
2022/12/16 00:14:32;;;;;;;;;45.25;33.75;;;;;2.29;59.65;100623.00;5059034;28;45286;-48
2022/12/16 00:16:57;;;;;;;;;48.50;35.50;;;;;2.26;59.62;100623.19;5059026;28;45335;-53
2022/12/16 00:19:23;;;;;;;;;56.50;45.00;;;;;2.29;59.73;100630.06;5058659;28;45203;-52
2022/12/16 00:21:49;;;;;;;;;51.25;35.00;;;;;2.30;59.33;100639.59;5058982;28;45342;-47
2022/12/16 00:24:14;;;;;;;;;47.00;40.00;;;;;2.22;59.79;100627.78;5058823;28;45415;-53
2022/12/16 00:26:39;;;;;;;;;59.75;45.75;;;;;2.30;59.58;100656.19;5058719;28;45201;-50
2022/12/16 00:29:05;;;;;;;;;53.75;41.00;;;;;2.31;59.84;100657.88;5058853;28;45169;-51
2022/12/16 00:31:30;;;;;;;;;42.00;33.00;;;;;2.31;59.77;100654.41;5057631;28;45429;-44
2022/12/16 00:33:57;;;;;;;;;51.00;42.50;;;;;2.29;59.82;100656.28;5058680;28;46099;-53
2022/12/16 00:36:22;;;;;;;;;52.00;38.50;;;;;2.30;59.56;100661.44;5058638;28;45431;-51
2022/12/16 00:38:50;;;;;;;;;43.00;39.25;;;;;2.29;59.97;100662.38;5058753;28;45431;-50
2022/12/16 00:41:16;;;;;;;;;45.25;36.50;;;;;2.30;59.98;100655.34;5058868;28;45517;-50
2022/12/16 00:43:41;;;;;;;;;52.00;40.25;;;;;2.29;60.08;100658.91;5058309;28;46198;-51
2022/12/16 00:46:06;;;;;;;;;43.00;37.00;;;;;2.28;59.96;100652.00;5058518;28;45203;-49
2022/12/16 00:48:32;;;;;;;;;40.50;32.25;;;;;2.27;60.11;100659.00;5058439;28;45150;-52
2022/12/16 00:50:57;;;;;;;;;31.25;29.25;;;;;2.30;59.81;100663.22;5058648;28;45370;-51
2022/12/16 00:53:24;;;;;;;;;40.50;34.00;;;;;2.28;59.78;100660.72;5058194;28;46252;-53
2022/12/16 00:55:50;;;;;;;;;43.50;36.00;;;;;2.28;59.70;100657.25;5057865;28;45169;-47
2022/12/16 00:58:16;;;;;;;;;42.75;38.75;;;;;2.27;60.13;100659.00;5058464;28;45239;-52
2022/12/16 01:00:41;;;;;;;;;45.25;33.50;;;;;2.30;59.60;100668.47;5058791;28;45583;-49
2022/12/16 01:03:07;;;;;;;;;48.75;40.50;;;;;2.29;60.37;100669.41;5057910;28;45443;-47
2022/12/16 01:05:32;;;;;;;;;47.50;35.50;;;;;2.28;59.98;100667.75;5058147;28;45337;-42
2022/12/16 01:07:58;;;;;;;;;52.25;34.50;;;;;2.24;59.95;100657.44;5057124;28;45351;-43
2022/12/16 01:10:24;;;;;;;;;38.25;35.00;;;;;2.24;60.18;100670.56;5059899;28;45378;-50
2022/12/16 01:12:50;;;;;;;;;32.00;25.50;;;;;2.25;60.25;100677.47;5059814;28;46209;-44
2022/12/16 01:15:17;;;;;;;;;51.50;39.25;;;;;2.25;60.65;100674.00;5073546;28;45457;-50
2022/12/16 01:17:42;;;;;;;;;55.25;42.00;;;;;2.20;60.63;100666.44;5058133;28;45419;-46
2022/12/16 01:20:08;;;;;;;;;54.50;40.75;;;;;2.24;60.41;100673.19;5058143;28;45460;-46
2022/12/16 01:22:35;;;;;;;;;39.00;35.00;;;;;2.25;60.67;100680.09;5057774;28;46224;-53
2022/12/16 01:25:01;;;;;;;;;44.00;36.25;;;;;2.29;60.51;100685.16;5057624;28;45433;-52
2022/12/16 01:27:27;;;;;;;;;48.50;41.50;;;;;2.25;60.58;100681.88;5057908;28;45403;-57
2022/12/16 01:29:53;;;;;;;;;48.00;39.00;;;;;2.25;60.45;100685.34;5058285;28;45341;-45
2022/12/16 01:32:19;;;;;;;;;34.00;28.25;;;;;2.25;60.79;100695.84;5057717;28;47081;-46
2022/12/16 01:34:52;;;;;;;;;44.00;37.75;;;;;2.27;60.81;100697.53;5057729;28;45442;-46
2022/12/16 01:37:17;;;;;;;;;42.75;35.50;;;;;2.27;60.35;100692.28;5057775;28;45422;-53
2022/12/16 01:39:43;;;;;;;;;47.25;36.00;;;;;2.27;60.79;100702.78;5057968;28;45269;-47
2022/12/16 01:42:13;;;;;;;;;44.75;38.00;;;;;2.16;60.86;100693.78;5057688;28;46222;-53
2022/12/16 01:44:41;;;;;;;;;31.50;28.00;;;;;2.27;61.10;100713.28;5057620;28;45295;-49
2022/12/16 01:47:15;;;;;;;;;48.50;39.25;;;;;2.25;61.28;100706.34;5057882;28;45325;-48
2022/12/16 01:49:53;;;;;;;;;51.00;43.00;;;;;2.26;61.24;100717.69;5058068;28;45294;-52
2022/12/16 01:52:22;;;;;;;;;47.25;39.50;;;;;2.28;61.21;100730.75;5057588;28;45968;-53
2022/12/16 01:55:01;;;;;;;;;54.00;39.25;;;;;2.29;61.58;100727.16;5057383;28;45400;-54
2022/12/16 01:57:36;;;;;;;;;43.75;35.50;;;;;2.23;60.90;100723.13;5056833;28;45503;-52
2022/12/16 02:00:05;;;;;;;;;46.25;31.00;;;;;2.29;61.48;100746.38;5057677;28;45463;-52
2022/12/16 02:02:30;;;;;;;;;43.25;36.25;;;;;2.29;61.26;100753.41;5057352;28;47177;-47
2022/12/16 02:07:40;;;;;;;;;51.75;36.50;;;;;2.28;61.61;100759.59;5057427;28;45545;-52
2022/12/16 02:10:06;;;;;;;;;41.75;36.00;;;;;2.27;61.49;100760.53;5057699;28;45396;-53
2022/12/16 02:12:58;;;;;;;;;42.50;36.50;;;;;2.27;61.30;100765.78;5057184;28;45284;-44
2022/12/16 02:16:05;;;;;;;;;41.75;36.25;;;;;2.28;61.65;100770.94;5057057;28;45439;-52
2022/12/16 02:18:33;;;;;;;;;47.50;31.50;;;;;2.25;61.49;100764.09;5034516;28;45291;-51
2022/12/16 02:21:15;;;;;;;;;41.75;34.25;;;;;2.26;61.71;100762.31;5057381;28;45349;-53
2022/12/16 02:23:59;;;;;;;;;41.50;35.00;;;;;2.25;61.63;100764.09;5056448;28;45358;-54
2022/12/16 02:26:34;;;;;;;;;40.50;37.00;;;;;2.25;61.99;100764.09;5057162;28;45353;-50
2022/12/16 02:29:24;;;;;;;;;43.25;36.00;;;;;2.25;61.42;100761.47;5056913;28;45419;-53
2022/12/16 02:32:15;;;;;;;;;42.25;38.00;;;;;2.26;61.55;100764.94;5057213;28;45361;-54
2022/12/16 02:34:54;;;;;;;;;44.00;36.75;;;;;2.25;61.75;100766.72;5056492;28;46868;-47
2022/12/16 02:37:31;;;;;;;;;39.75;37.00;;;;;2.25;61.78;100761.47;5056830;28;45425;-50
2022/12/16 02:40:04;;;;;;;;;39.50;36.00;;;;;2.25;62.11;100760.63;5055740;28;45278;-52
2022/12/16 02:42:44;;;;;;;;;44.00;37.00;;;;;2.23;61.90;100758.09;5057015;28;45454;-55
2022/12/16 02:45:16;;;;;;;;;44.75;37.50;;;;;2.25;61.86;100756.22;5056630;28;45979;-52
2022/12/16 02:47:43;;;;;;;;;49.00;41.50;;;;;2.24;62.23;100751.91;5056825;28;45466;-52
2022/12/16 02:50:36;;;;;;;;;50.00;44.50;;;;;2.29;61.74;100754.25;5056988;28;45309;-47
2022/12/16 02:53:03;;;;;;;;;54.50;43.25;;;;;2.31;61.90;100762.03;5056954;28;45252;-52
2022/12/16 02:55:48;;;;;;;;;44.00;38.50;;;;;2.29;62.40;100756.88;5056548;28;46142;-46
2022/12/16 02:58:35;;;;;;;;;41.50;39.50;;;;;2.29;62.27;100759.50;5056641;28;45488;-49
2022/12/16 03:01:20;;;;;;;;;59.00;42.00;;;;;2.31;62.62;100772.53;5056673;28;45254;-53
2022/12/16 03:04:01;;;;;;;;;59.00;44.50;;;;;2.29;62.31;100770.00;5056559;28;45378;-51
2022/12/16 03:06:30;;;;;;;;;52.25;43.25;;;;;2.30;62.30;100762.97;5056438;28;46562;-50
2022/12/16 03:09:00;;;;;;;;;55.75;43.25;;;;;2.31;62.75;100768.13;5057150;28;45431;-51
2022/12/16 03:11:28;;;;;;;;;52.50;42.25;;;;;2.31;62.63;100768.13;5060000;28;45254;-54
2022/12/16 03:13:56;;;;;;;;;51.50;40.50;;;;;2.34;62.24;100772.34;5060173;28;45382;-48
2022/12/16 03:16:28;;;;;;;;;56.25;41.50;;;;;2.32;62.11;100764.56;5059762;28;45350;-51
2022/12/16 03:18:58;;;;;;;;;53.00;44.75;;;;;2.35;62.37;100781.91;5059689;28;45424;-47
2022/12/16 03:21:30;;;;;;;;;42.50;33.00;;;;;2.32;62.69;100769.81;5059907;28;45319;-52
2022/12/16 03:24:06;;;;;;;;;54.75;40.25;;;;;2.36;62.55;100773.94;5060060;28;45293;-46
2022/12/16 03:26:42;;;;;;;;;52.50;45.25;;;;;2.36;62.50;100770.47;5059648;28;47129;-50
2022/12/16 03:29:23;;;;;;;;;52.25;45.50;;;;;2.37;62.40;100778.25;5059832;28;45239;-54
2022/12/16 03:31:56;;;;;;;;;50.00;38.25;;;;;2.37;62.56;100777.41;5059792;28;45413;-50
2022/12/16 03:34:35;;;;;;;;;65.50;46.75;;;;;2.36;62.41;100776.56;5059862;28;45447;-50
2022/12/16 03:37:07;;;;;;;;;57.25;47.00;;;;;2.34;62.92;100767.09;5059581;28;46514;-48
2022/12/16 03:39:37;;;;;;;;;51.00;38.75;;;;;2.38;62.91;100781.72;5059370;28;45387;-52
2022/12/16 03:42:03;;;;;;;;;56.25;46.50;;;;;2.37;62.82;100791.38;5059726;28;45211;-52
2022/12/16 03:44:29;;;;;;;;;51.50;43.00;;;;;2.36;62.56;100792.34;5059694;28;45380;-52
2022/12/16 03:46:54;;;;;;;;;49.00;39.00;;;;;2.36;62.96;100786.22;5059379;28;45285;-50
2022/12/16 03:49:21;;;;;;;;;51.50;36.75;;;;;2.37;62.65;100795.78;5059182;28;45511;-53
2022/12/16 03:51:47;;;;;;;;;49.75;44.50;;;;;2.36;62.90;100794.09;5059639;28;45370;-46
2022/12/16 03:54:12;;;;;;;;;55.25;43.00;;;;;2.38;62.60;100793.06;5059470;28;45338;-47
2022/12/16 03:56:37;;;;;;;;;44.25;36.75;;;;;2.37;62.94;100794.00;5059358;28;45702;-49
2022/12/16 03:59:03;;;;;;;;;45.75;34.25;;;;;2.38;62.79;100795.69;5059227;28;45338;-53
2022/12/16 04:01:28;;;;;;;;;62.50;45.25;;;;;2.38;62.38;100795.69;5059399;28;45266;-47
2022/12/16 04:03:53;;;;;;;;;46.00;36.75;;;;;2.40;62.90;100796.47;5059233;28;45439;-42
2022/12/16 04:06:19;;;;;;;;;48.00;37.00;;;;;2.39;62.45;100802.63;5059089;28;46162;-45
2022/12/16 04:08:45;;;;;;;;;43.00;32.00;;;;;2.36;62.42;100799.34;5059380;28;45374;-48
2022/12/16 04:25:20;;;;;;;;;51.75;33.00;;;;;2.26;62.71;100806.94;4997118;28;45387;-53
2022/12/16 04:27:48;;;;;;;;;43.75;34.75;;;;;2.37;62.77;100819.41;4996317;28;47619;-49
2022/12/16 04:30:18;;;;;;;;;42.00;27.75;;;;;2.38;62.97;100832.44;4995998;28;46082;-48
